Time;durP1;ratioP1;P1;durP2;ratioP2;P2;SDS_P1;SDS_P2;PMS_P1;PMS_P2;Temp;Humidity;BMP_temperature;BMP_pressure;BME280_temperature;BME280_humidity;BME280_pressure;Samples;Min_cycle;Max_cycle;Signal;HPM_P1;HPM_P2
2023/02/13 00:00:16;;;;;;;0.80;0.30;;;;;;;2.67;72.95;102310.81;5014932;28;20071;-70
2023/02/13 00:02:43;;;;;;;3.65;0.40;;;;;;;2.68;72.24;102310.03;5009453;28;20056;-70
2023/02/13 00:05:10;;;;;;;1.65;0.52;;;;;;;2.69;72.79;102311.78;5015594;28;20063;-70
2023/02/13 00:07:37;;;;;;;2.15;0.30;;;;;;;2.69;72.84;102311.78;5019072;28;20054;-70
2023/02/13 00:10:04;;;;;;;4.53;0.30;;;;;;;2.70;72.66;102308.38;5018399;28;20545;-70
2023/02/13 00:12:32;;;;;;;2.45;0.40;;;;;;;2.68;72.66;102300.59;5019268;28;20056;-70
2023/02/13 00:15:00;;;;;;;1.80;0.30;;;;;;;2.62;72.40;102295.19;5013458;28;20046;-70
2023/02/13 00:17:27;;;;;;;2.75;0.30;;;;;;;2.70;72.52;102306.69;5019654;28;20466;-70
2023/02/13 00:19:54;;;;;;;1.58;0.40;;;;;;;2.72;72.61;102305.84;5023703;28;20045;-70
2023/02/13 00:22:20;;;;;;;1.25;0.28;;;;;;;2.71;72.31;102294.66;5014746;28;20060;-70
2023/02/13 00:24:47;;;;;;;0.43;0.30;;;;;;;2.72;72.20;102301.56;5015494;28;20056;-70
2023/02/13 00:27:14;;;;;;;2.25;0.30;;;;;;;2.73;72.27;102298.16;5018588;28;20103;-70
2023/02/13 00:29:43;;;;;;;3.38;0.32;;;;;;;2.73;72.33;102298.16;5019279;28;20050;-70
2023/02/13 00:32:09;;;;;;;3.08;0.30;;;;;;;2.70;72.15;102300.63;5020211;28;20081;-70
2023/02/13 00:34:36;;;;;;;1.42;0.30;;;;;;;2.74;72.41;102299.94;5016554;28;20045;-70
2023/02/13 00:37:03;;;;;;;4.57;0.45;;;;;;;2.72;72.00;102290.38;5018878;28;20513;-70
2023/02/13 00:39:30;;;;;;;1.90;0.35;;;;;;;2.75;72.94;102291.38;5015184;28;20077;-70
2023/02/13 00:41:57;;;;;;;3.40;0.20;;;;;;;2.73;72.64;102282.69;5022312;28;20046;-70
2023/02/13 00:44:24;;;;;;;1.00;0.50;;;;;;;2.73;72.49;102293.00;5011547;28;20370;-70
2023/02/13 00:46:52;;;;;;;1.50;0.20;;;;;;;2.73;72.85;102287.84;5020518;28;20409;-70
2023/02/13 00:49:19;;;;;;;4.30;0.88;;;;;;;2.74;72.41;102284.47;5019593;28;20051;-70
2023/02/13 00:51:46;;;;;;;3.08;0.68;;;;;;;2.74;72.23;102278.41;5021316;28;20050;-70
2023/02/13 00:54:12;;;;;;;2.50;0.20;;;;;;;2.74;72.68;102278.41;5017704;28;20049;-70
2023/02/13 00:56:39;;;;;;;1.77;0.40;;;;;;;2.75;72.73;102273.31;5018610;28;20129;-70
2023/02/13 00:59:06;;;;;;;0.70;0.20;;;;;;;2.73;72.45;102271.47;5015621;28;20053;-70
2023/02/13 01:01:33;;;;;;;4.03;0.40;;;;;;;2.75;72.57;102275.00;5020482;28;20054;-70
2023/02/13 01:04:01;;;;;;;1.95;0.20;;;;;;;2.75;72.39;102277.59;5019630;28;21627;-70
2023/02/13 01:06:28;;;;;;;2.15;0.30;;;;;;;2.76;72.72;102274.19;5021298;28;20417;-70
2023/02/13 01:08:55;;;;;;;0.85;0.20;;;;;;;2.76;72.25;102271.59;5017074;28;20575;-70
2023/02/13 01:11:22;;;;;;;2.15;0.25;;;;;;;2.75;71.99;102265.56;5016138;28;20046;-70
2023/02/13 01:13:49;;;;;;;0.50;0.20;;;;;;;2.71;72.09;102268.84;5019694;28;20038;-70
2023/02/13 01:16:16;;;;;;;1.00;0.20;;;;;;;2.75;72.03;102268.13;5023352;28;20041;-70
2023/02/13 01:18:43;;;;;;;4.85;0.20;;;;;;;2.77;72.74;102270.78;5022845;28;20061;-70
2023/02/13 01:21:17;;;;;;;0.43;0.20;;;;;;;2.77;72.51;102266.50;5017120;28;20064;-70
2023/02/13 01:23:44;;;;;;;0.43;0.20;;;;;;;2.73;72.25;102262.03;5025501;28;20041;-70
2023/02/13 01:26:17;;;;;;;1.45;1.00;;;;;;;2.78;72.38;102265.66;5018856;28;20041;-70
2023/02/13 01:28:44;;;;;;;2.70;0.17;;;;;;;2.78;72.21;102254.47;5014311;28;20060;-70
2023/02/13 01:31:11;;;;;;;2.15;0.20;;;;;;;2.79;71.98;102264.88;5018264;28;20719;-70
2023/02/13 01:33:38;;;;;;;1.20;0.22;;;;;;;2.79;72.15;102262.28;5016620;28;20975;-70
2023/02/13 01:36:10;;;;;;;1.85;0.20;;;;;;;2.78;72.27;102257.94;5018590;28;20041;-70
2023/02/13 01:38:39;;;;;;;2.92;0.20;;;;;;;2.79;72.64;102257.13;5023924;28;20056;-70
2023/02/13 01:41:06;;;;;;;1.20;0.20;;;;;;;2.79;72.05;102257.13;5017125;28;20053;-70
2023/02/13 01:43:48;;;;;;;1.45;0.20;;;;;;;2.79;72.09;102254.56;5022955;28;20054;-70
2023/02/13 01:46:19;;;;;;;0.47;0.10;;;;;;;2.75;72.18;102252.66;5018178;28;20470;-70
2023/02/13 01:48:48;;;;;;;0.82;0.40;;;;;;;2.79;72.50;102249.38;5023903;28;20077;-70
2023/02/13 01:51:19;;;;;;;0.40;0.20;;;;;;;2.79;71.98;102251.97;5022773;28;20046;-70
2023/02/13 01:53:52;;;;;;;0.57;0.30;;;;;;;2.79;72.41;102244.22;5015977;28;20046;-70
2023/02/13 01:56:23;;;;;;;0.80;0.22;;;;;;;2.80;72.62;102255.41;5016988;28;20124;-70
2023/02/13 01:58:53;;;;;;;3.13;0.30;;;;;;;2.78;72.29;102250.19;5020926;28;20048;-70
2023/02/13 02:01:22;;;;;;;4.30;0.85;;;;;;;2.79;71.85;102257.13;5023590;28;20050;-70
2023/02/13 02:03:53;;;;;;;0.90;0.20;;;;;;;2.79;72.39;102254.56;5020854;28;20133;-71
2023/02/13 02:06:26;;;;;;;1.88;0.52;;;;;;;2.79;71.97;102257.13;5014922;28;20490;-70
2023/02/13 02:08:59;;;;;;;2.75;0.20;;;;;;;2.79;72.28;102262.28;5027108;28;20056;-70
2023/02/13 02:11:32;;;;;;;4.43;0.20;;;;;;;2.78;71.83;102259.63;5015937;28;20052;-71
2023/02/13 02:14:02;;;;;;;0.47;0.13;;;;;;;2.79;71.87;102261.38;5021904;28;20049;-70
2023/02/13 02:16:30;;;;;;;1.92;0.20;;;;;;;2.78;71.99;102252.78;5024969;28;20049;-70
2023/02/13 02:18:57;;;;;;;3.92;0.20;;;;;;;2.79;72.33;102248.47;5018944;28;20042;-70
2023/02/13 02:21:54;;;;;;;0.47;0.10;;;;;;;2.79;72.22;102251.97;5022553;28;20050;-70
2023/02/13 02:24:59;;;;;;;0.57;0.10;;;;;;;2.79;71.99;102241.66;5017733;28;20053;-70
2023/02/13 02:28:16;;;;;;;0.93;0.13;;;;;;;2.78;72.02;102244.16;5015240;28;20045;-70
2023/02/13 02:31:09;;;;;;;1.08;0.20;;;;;;;2.77;72.40;102247.56;5021037;28;20059;-70
2023/02/13 02:33:48;;;;;;;1.85;0.10;;;;;;;2.77;72.64;102242.41;5019576;28;20125;-70
2023/02/13 02:36:29;;;;;;;1.17;0.15;;;;;;;2.73;72.13;102246.56;5015312;28;20054;-70
2023/02/13 02:39:06;;;;;;;2.13;0.20;;;;;;;2.76;72.47;102246.69;5017663;28;20056;-70
2023/02/13 02:41:43;;;;;;;1.20;0.25;;;;;;;2.76;72.09;102253.53;5014288;28;20049;-70
2023/02/13 02:44:26;;;;;;;0.47;0.17;;;;;;;2.77;71.97;102248.44;5020602;28;20049;-70
2023/02/13 02:50:00;;;;;;;2.47;0.10;;;;;;;2.76;71.89;102245.78;5020591;28;20060;-70
2023/02/13 02:52:37;;;;;;;2.47;0.20;;;;;;;2.75;72.15;102244.91;5023898;28;20050;-70
2023/02/13 02:55:11;;;;;;;1.40;0.10;;;;;;;2.76;72.19;102257.03;5020458;28;20060;-70
2023/02/13 03:06:12;;;;;;;0.77;0.38;;;;;;;2.77;72.59;102256.19;5021901;28;20056;-69
2023/02/13 03:14:14;;;;;;;3.13;0.20;;;;;;;2.77;72.55;102245.88;5021322;28;20628;-69
2023/02/13 03:22:35;;;;;;;0.77;0.20;;;;;;;2.70;71.92;102241.28;5023924;28;20099;-70
2023/02/13 03:25:10;;;;;;;1.08;0.38;;;;;;;2.76;72.03;102243.22;5013787;28;20060;-69
2023/02/13 03:30:40;;;;;;;3.33;0.10;;;;;;;2.76;72.45;102241.53;5024257;28;20069;-69
2023/02/13 03:33:26;;;;;;;1.50;0.10;;;;;;;2.77;72.33;102242.41;5014209;28;20068;-70
2023/02/13 03:38:54;;;;;;;0.20;0.10;;;;;;;2.77;72.34;102238.13;5008719;28;20639;-70
2023/02/13 03:41:27;;;;;;;3.35;0.10;;;;;;;2.77;72.37;102232.97;5012641;28;20425;-69
2023/02/13 03:44:08;;;;;;;1.15;0.13;;;;;;;2.72;72.02;102223.28;5006918;28;20063;-70
2023/02/13 03:46:37;;;;;;;0.55;0.32;;;;;;;2.77;72.30;102237.25;5011940;28;20525;-69
2023/02/13 03:52:16;;;;;;;1.10;0.20;;;;;;;2.77;72.51;102232.09;5106256;27;20374;-73
2023/02/13 04:00:20;;;;;;;0.47;0.10;;;;;;;2.77;72.17;102234.66;5092249;28;20097;-73
2023/02/13 04:03:05;;;;;;;0.40;0.10;;;;;;;2.74;72.62;102227.69;5094484;28;20047;-73
2023/02/13 04:05:41;;;;;;;0.40;0.40;;;;;;;2.77;72.44;102232.97;5091535;28;20063;-74
2023/02/13 04:08:09;;;;;;;2.42;0.13;;;;;;;2.78;71.87;102234.72;5092299;28;20043;-73
2023/02/13 04:10:42;;;;;;;1.13;0.10;;;;;;;2.79;71.93;102236.47;5095186;28;20048;-72
2023/02/13 04:13:16;;;;;;;2.53;0.30;;;;;;;2.78;72.36;102228.66;5092986;28;20412;-73
2023/02/13 04:15:46;;;;;;;0.38;0.10;;;;;;;2.79;72.42;102228.75;5092615;28;20044;-73
2023/02/13 04:18:18;;;;;;;1.27;0.20;;;;;;;2.76;72.04;102222.56;5094484;28;20415;-73
2023/02/13 04:20:45;;;;;;;1.67;0.43;;;;;;;2.79;71.96;102228.75;5094945;28;20060;-72
2023/02/13 04:23:13;;;;;;;4.70;0.10;;;;;;;2.80;72.08;102233.06;5093152;28;20058;-72
2023/02/13 04:25:43;;;;;;;0.28;0.20;;;;;;;2.78;72.18;102224.38;5097431;28;20054;-74
2023/02/13 04:28:10;;;;;;;0.63;0.20;;;;;;;2.80;72.19;102227.03;5092940;28;20508;-72
2023/02/13 04:30:37;;;;;;;1.88;0.15;;;;;;;2.78;72.20;102219.22;5090871;28;20040;-72
2023/02/13 04:33:04;;;;;;;3.03;0.20;;;;;;;2.80;72.29;102211.56;5091245;28;20075;-72
2023/02/13 04:35:31;;;;;;;0.32;0.10;;;;;;;2.76;72.36;102191.59;5094578;28;20077;-72
2023/02/13 04:37:58;;;;;;;0.95;0.10;;;;;;;2.79;72.23;102209.78;5094318;28;20051;-75
2023/02/13 04:40:26;;;;;;;1.60;0.20;;;;;;;2.78;71.77;102214.06;5092852;28;20047;-73
2023/02/13 04:42:53;;;;;;;1.33;0.77;;;;;;;2.78;72.22;102219.22;5089300;28;20613;-72
2023/02/13 04:45:20;;;;;;;4.00;0.30;;;;;;;2.77;72.41;102217.47;5095854;28;20162;-72
2023/02/13 04:47:51;;;;;;;3.58;0.20;;;;;;;2.78;72.63;102214.06;5092494;28;20044;-72
2023/02/13 04:50:18;;;;;;;4.53;0.20;;;;;;;2.78;72.08;102218.34;5092733;28;20117;-72
2023/02/13 04:52:45;;;;;;;0.47;0.17;;;;;;;2.77;71.90;102217.47;5091076;28;20488;-72
2023/02/13 04:55:12;;;;;;;2.25;0.77;;;;;;;2.76;72.15;102214.81;5093708;28;20051;-73
2023/02/13 04:57:41;;;;;;;0.47;0.17;;;;;;;2.77;71.78;102217.47;5095156;28;20068;-72
2023/02/13 05:00:09;;;;;;;2.10;0.13;;;;;;;2.75;72.16;102226.84;5093588;28;20504;-72
2023/02/13 05:02:36;;;;;;;3.20;0.20;;;;;;;2.73;72.30;102218.16;5087347;28;20043;-72
2023/02/13 05:05:03;;;;;;;1.80;0.10;;;;;;;2.76;71.99;102230.31;5078986;28;20054;-72
2023/02/13 05:07:30;;;;;;;1.08;0.63;;;;;;;2.75;72.00;102234.59;5081008;28;20060;-72
2023/02/13 05:09:57;;;;;;;3.80;0.60;;;;;;;2.74;72.60;102231.97;5081491;28;20400;-75
2023/02/13 05:12:24;;;;;;;0.40;0.20;;;;;;;2.76;72.29;102231.22;5080196;28;20053;-75
2023/02/13 05:14:52;;;;;;;2.10;0.20;;;;;;;2.75;72.23;102223.41;5078024;28;20040;-75
2023/02/13 05:17:19;;;;;;;0.80;0.20;;;;;;;2.74;72.27;102227.69;5079329;28;20044;-73
2023/02/13 05:19:46;;;;;;;1.92;0.20;;;;;;;2.75;72.44;102231.13;5076978;28;20066;-73
2023/02/13 05:24:57;;;;;;;0.25;0.20;;;;;;;2.75;72.22;102225.97;5081824;28;20587;-73
2023/02/13 05:27:24;;;;;;;1.95;0.17;;;;;;;2.75;72.50;102239.75;5080705;28;20048;-73
2023/02/13 05:29:52;;;;;;;1.05;0.10;;;;;;;2.75;71.88;102229.44;5080593;28;20415;-72
2023/02/13 05:32:19;;;;;;;0.40;0.10;;;;;;;2.75;71.88;102229.44;5074564;28;20055;-72
2023/02/13 05:34:46;;;;;;;2.20;0.17;;;;;;;2.75;72.15;102229.44;5077655;28;20044;-73
2023/02/13 05:37:13;;;;;;;0.95;0.20;;;;;;;2.74;71.95;102226.81;5076642;28;20041;-73
2023/02/13 05:39:40;;;;;;;0.65;0.13;;;;;;;2.75;71.81;102238.88;5077131;28;20036;-73
2023/02/13 05:42:07;;;;;;;2.28;0.15;;;;;;;2.75;72.55;102237.19;5078853;28;20051;-73
2023/02/13 05:44:34;;;;;;;2.75;0.17;;;;;;;2.76;72.27;102235.47;5077000;28;20055;-73
2023/02/13 05:47:03;;;;;;;2.85;0.20;;;;;;;2.74;72.07;102240.59;5077180;28;20824;-76
2023/02/13 05:49:29;;;;;;;1.27;0.20;;;;;;;2.75;72.23;102250.06;5077520;28;20044;-72
2023/02/13 05:51:56;;;;;;;2.55;0.20;;;;;;;2.75;71.89;102246.63;5075121;28;20063;-73
2023/02/13 05:54:23;;;;;;;3.70;0.15;;;;;;;2.75;71.93;102244.91;5076642;28;20051;-73
2023/02/13 05:56:50;;;;;;;3.17;0.30;;;;;;;2.74;72.34;102256.06;5075014;28;20048;-73
2023/02/13 05:59:17;;;;;;;0.73;0.13;;;;;;;2.75;72.18;102265.56;5076933;28;20044;-72
2023/02/13 06:01:44;;;;;;;2.70;0.30;;;;;;;2.74;71.80;102268.97;5074388;28;20047;-73
2023/02/13 06:04:12;;;;;;;1.40;0.10;;;;;;;2.73;72.00;102267.19;5076912;28;20070;-73
2023/02/13 06:06:39;;;;;;;2.78;0.20;;;;;;;2.71;72.55;102276.59;5075834;28;20048;-73
2023/02/13 06:09:06;;;;;;;2.72;0.30;;;;;;;2.74;72.13;102283.59;5078445;28;20053;-73
2023/02/13 06:11:34;;;;;;;0.85;0.10;;;;;;;2.72;72.14;102275.78;5076146;28;20079;-73
2023/02/13 06:14:01;;;;;;;2.58;0.28;;;;;;;2.72;72.54;102280.06;5073669;28;20045;-73
2023/02/13 06:16:29;;;;;;;5.95;0.20;;;;;;;2.71;72.44;102281.75;5078426;28;20040;-73
2023/02/13 06:18:56;;;;;;;1.88;0.30;;;;;;;2.65;72.16;102284.13;5076896;28;20056;-73
2023/02/13 06:21:25;;;;;;;4.32;0.20;;;;;;;2.71;72.23;102297.25;5073784;28;20045;-72
2023/02/13 06:23:52;;;;;;;0.85;0.17;;;;;;;2.69;71.89;102307.50;5077391;28;20048;-71
2023/02/13 06:26:19;;;;;;;1.42;0.43;;;;;;;2.68;71.85;102310.03;5074858;28;20424;-71
2023/02/13 06:28:45;;;;;;;1.20;0.20;;;;;;;2.68;72.25;102310.03;5075110;28;20044;-71
2023/02/13 06:31:12;;;;;;;3.75;0.30;;;;;;;2.68;71.93;102299.72;5073707;28;20244;-71
2023/02/13 06:33:39;;;;;;;1.05;0.20;;;;;;;2.67;72.07;102297.94;5075879;28;20071;-71
2023/02/13 06:36:07;;;;;;;2.80;0.20;;;;;;;2.66;72.05;102306.50;5074849;28;20036;-74
2023/02/13 06:38:36;;;;;;;2.03;0.20;;;;;;;2.64;71.95;102296.09;5075404;28;20049;-73
2023/02/13 06:41:03;;;;;;;2.13;0.22;;;;;;;2.65;72.25;102295.31;5075328;28;20053;-74
2023/02/13 06:43:30;;;;;;;0.68;0.20;;;;;;;2.65;71.61;102294.44;5073119;28;20051;-73
2023/02/13 06:45:57;;;;;;;3.17;0.20;;;;;;;2.63;72.59;102296.06;5076760;28;20052;-73
2023/02/13 06:48:24;;;;;;;0.60;0.20;;;;;;;2.63;72.29;102290.91;5079653;28;20055;-73
2023/02/13 06:50:51;;;;;;;1.83;0.30;;;;;;;2.63;72.10;102290.91;5078622;28;20056;-74
2023/02/13 06:53:23;;;;;;;4.88;0.22;;;;;;;2.62;71.92;102278.84;5074639;28;20051;-73
2023/02/13 06:55:52;;;;;;;4.03;0.40;;;;;;;2.56;72.39;102263.09;5076865;28;20048;-73
2023/02/13 06:58:19;;;;;;;4.25;0.50;;;;;;;2.61;72.60;102272.78;5075125;28;20052;-73
2023/02/13 07:00:46;;;;;;;0.65;0.20;;;;;;;2.60;72.00;102267.56;5078863;28;20055;-72
2023/02/13 07:03:13;;;;;;;1.50;0.30;;;;;;;2.58;72.00;102261.47;5079586;28;20078;-72
2023/02/13 07:05:41;;;;;;;6.28;0.57;;;;;;;2.59;72.04;102270.94;5078477;28;20048;-73
2023/02/13 07:08:08;;;;;;;0.77;0.17;;;;;;;2.58;72.44;102288.13;5075574;28;20153;-75
2023/02/13 07:10:37;;;;;;;1.02;0.20;;;;;;;2.58;72.37;102288.13;5077209;28;20044;-73
2023/02/13 07:13:06;;;;;;;1.13;0.20;;;;;;;2.60;72.59;102285.63;5079988;28;20051;-73
2023/02/13 07:15:33;;;;;;;2.40;0.17;;;;;;;2.59;72.49;102295.06;5077689;28;20044;-74
2023/02/13 07:18:01;;;;;;;1.73;0.20;;;;;;;2.60;72.59;102301.13;5080799;28;20055;-73
2023/02/13 07:20:29;;;;;;;4.18;0.20;;;;;;;2.60;72.19;102290.78;5078981;28;20040;-74
2023/02/13 07:22:59;;;;;;;5.88;0.30;;;;;;;2.60;72.56;102285.63;5081601;28;20052;-74
2023/02/13 07:25:26;;;;;;;1.17;0.30;;;;;;;2.60;72.03;102285.63;5076659;28;20492;-74
2023/02/13 07:27:53;;;;;;;3.15;0.30;;;;;;;2.60;71.96;102285.63;5079285;28;20055;-75
2023/02/13 07:30:21;;;;;;;5.13;0.73;;;;;;;2.58;71.99;102272.66;5078368;28;20048;-75
2023/02/13 07:32:50;;;;;;;0.90;0.10;;;;;;;2.60;72.06;102277.91;5076059;28;20408;-76
2023/02/13 07:35:17;;;;;;;2.13;0.30;;;;;;;2.60;72.49;102280.47;5076433;28;20056;-76
2023/02/13 07:37:44;;;;;;;4.72;0.20;;;;;;;2.60;72.20;102281.34;5080499;28;20043;-75
2023/02/13 07:40:11;;;;;;;0.82;0.20;;;;;;;2.60;72.41;102291.66;5083288;28;20135;-76
2023/02/13 07:42:38;;;;;;;3.20;0.30;;;;;;;2.60;72.12;102276.19;5081242;28;20477;-75
2023/02/13 07:45:06;;;;;;;0.30;0.17;;;;;;;2.60;72.05;102276.19;5080069;28;20131;-73
2023/02/13 07:47:35;;;;;;;5.32;0.25;;;;;;;2.60;72.41;102286.50;5077392;28;20074;-75
2023/02/13 07:50:02;;;;;;;2.38;0.28;;;;;;;2.59;72.58;102283.84;5075064;28;20044;-74
2023/02/13 07:52:29;;;;;;;3.45;1.02;;;;;;;2.61;72.08;102297.69;5077070;28;20051;-73
2023/02/13 07:54:56;;;;;;;2.58;0.20;;;;;;;2.61;72.90;102298.56;5074270;28;20052;-73
2023/02/13 07:57:23;;;;;;;1.95;0.20;;;;;;;2.63;72.35;102308.97;5079507;28;20493;-74
2023/02/13 07:59:49;;;;;;;2.03;0.20;;;;;;;2.64;72.47;102308.13;5076556;28;20062;-75
2023/02/13 08:02:17;;;;;;;8.15;0.30;;;;;;;2.66;72.60;102311.66;5076945;28;20052;-73
2023/02/13 08:04:46;;;;;;;1.95;0.20;;;;;;;2.67;72.35;102303.09;5077561;28;20047;-74
2023/02/13 08:07:12;;;;;;;0.73;0.20;;;;;;;2.68;72.88;102315.19;5079112;28;20504;-73
2023/02/13 08:12:23;;;;;;;0.85;0.30;;;;;;;2.74;72.53;102325.75;5078685;28;20055;-73
2023/02/13 08:14:50;;;;;;;1.08;0.20;;;;;;;2.75;72.67;102322.31;5079736;28;20119;-74
2023/02/13 08:17:17;;;;;;;2.40;0.30;;;;;;;2.79;72.97;102331.97;5076568;28;20045;-73
2023/02/13 08:19:45;;;;;;;1.33;0.22;;;;;;;2.82;72.16;102326.91;5081191;28;20048;-73
2023/02/13 08:22:12;;;;;;;3.00;0.50;;;;;;;2.84;72.53;102340.75;5081151;28;20048;-77
2023/02/13 08:24:39;;;;;;;0.80;0.30;;;;;;;2.87;72.29;102332.22;5079057;28;20051;-76
2023/02/13 08:27:06;;;;;;;4.80;0.13;;;;;;;2.90;72.69;102341.00;5080313;28;20048;-76
2023/02/13 08:29:33;;;;;;;2.42;0.20;;;;;;;2.88;72.61;102329.72;5079068;28;20037;-75
2023/02/13 08:32:00;;;;;;;1.02;0.20;;;;;;;2.97;72.52;102342.09;5077241;28;20044;-73
2023/02/13 08:34:27;;;;;;;1.67;0.17;;;;;;;3.01;72.58;102346.53;5076171;28;20044;-75
2023/02/13 08:36:55;;;;;;;2.22;0.20;;;;;;;3.04;72.15;102350.94;5074851;28;20059;-73
2023/02/13 08:39:22;;;;;;;2.30;0.20;;;;;;;3.06;72.18;102354.47;5079208;28;20051;-73
2023/02/13 08:41:48;;;;;;;4.93;0.30;;;;;;;3.11;72.59;102358.13;5081329;28;20048;-74
2023/02/13 08:44:15;;;;;;;1.58;0.30;;;;;;;3.13;72.14;102362.50;5082104;28;20123;-72
2023/02/13 08:46:42;;;;;;;1.92;0.20;;;;;;;3.20;72.40;102363.63;5079079;28;20042;-76
2023/02/13 08:49:09;;;;;;;2.67;0.20;;;;;;;3.24;72.80;102370.63;5081928;28;20048;-75
2023/02/13 08:51:36;;;;;;;0.73;0.20;;;;;;;3.27;72.09;102370.78;5085738;28;20053;-76
2023/02/13 08:54:04;;;;;;;0.77;0.28;;;;;;;3.31;72.48;102372.63;5081920;28;20055;-76
2023/02/13 08:56:31;;;;;;;2.58;0.40;;;;;;;3.35;72.06;102379.66;5082414;28;20386;-76
2023/02/13 08:58:58;;;;;;;2.30;0.20;;;;;;;3.39;72.35;102378.09;5081498;28;20040;-76
2023/02/13 09:01:25;;;;;;;3.33;0.30;;;;;;;3.43;72.33;102377.38;5082325;28;20040;-76
2023/02/13 09:03:51;;;;;;;0.32;0.20;;;;;;;3.46;72.34;102380.06;5081013;28;20048;-75
2023/02/13 09:06:18;;;;;;;4.45;0.20;;;;;;;3.42;72.32;102369.59;5083356;28;20048;-75
2023/02/13 09:08:45;;;;;;;1.08;0.30;;;;;;;3.53;72.44;102386.31;5083035;28;20051;-75
2023/02/13 09:11:13;;;;;;;0.75;0.30;;;;;;;3.57;71.79;102386.50;5087824;28;20518;-76
2023/02/13 09:13:40;;;;;;;4.13;0.35;;;;;;;3.60;71.44;102378.84;5085206;28;20051;-76
2023/02/13 09:16:08;;;;;;;0.93;0.20;;;;;;;3.60;71.96;102367.66;5082925;28;20052;-79
2023/02/13 09:21:07;;;;;;;1.42;0.20;;;;;;;3.70;72.06;102356.81;5024502;28;20396;-75
2023/02/13 09:23:35;;;;;;;1.70;0.20;;;;;;;3.78;71.70;102364.81;5059838;28;20056;-79
2023/02/13 09:26:04;;;;;;;2.25;0.20;;;;;;;3.82;71.32;102359.81;5049671;28;20055;-77
2023/02/13 09:28:35;;;;;;;4.25;0.30;;;;;;;3.83;71.52;102352.94;5047865;28;20057;-80
2023/02/13 09:31:05;;;;;;;2.75;0.30;;;;;;;3.91;71.32;102369.59;5061431;28;20052;-74
2023/02/13 09:33:32;;;;;;;1.30;0.20;;;;;;;3.86;71.30;102352.16;5054101;28;20076;-76
2023/02/13 09:35:59;;;;;;;4.13;0.20;;;;;;;3.99;71.17;102367.28;5043528;28;20045;-79
2023/02/13 09:38:26;;;;;;;3.50;0.30;;;;;;;4.04;70.98;102373.47;5050644;28;20037;-78
2023/02/13 09:40:56;;;;;;;1.40;0.30;;;;;;;4.07;71.55;102373.59;5060630;28;20045;-77
2023/02/13 09:43:29;;;;;;;1.45;0.30;;;;;;;4.13;71.07;102367.75;5055464;28;20049;-78
2023/02/13 09:46:01;;;;;;;0.82;0.20;;;;;;;4.17;71.17;102367.91;5058390;28;20095;-77
2023/02/13 09:48:30;;;;;;;1.95;0.20;;;;;;;4.22;70.85;102362.88;5063155;28;20044;-80
2023/02/13 09:50:58;;;;;;;1.05;0.20;;;;;;;4.25;70.83;102369.03;5058717;28;20096;-77
2023/02/13 09:53:28;;;;;;;1.70;0.22;;;;;;;4.31;70.92;102367.47;5058395;28;20067;-78
2023/02/13 09:56:05;;;;;;;6.75;0.35;;;;;;;4.35;70.75;102364.16;5056743;28;20457;-79
2023/02/13 09:58:44;;;;;;;0.77;0.30;;;;;;;4.39;70.60;102369.47;5061678;28;20037;-79
2023/02/13 10:01:22;;;;;;;1.88;0.25;;;;;;;4.43;70.66;102373.91;5057925;28;20047;-78
2023/02/13 10:03:57;;;;;;;1.55;0.20;;;;;;;4.48;71.00;102377.53;5059233;28;20057;-77
2023/02/13 10:06:30;;;;;;;1.02;0.20;;;;;;;4.52;70.60;102388.84;5060113;28;20048;-79
2023/02/13 10:09:06;;;;;;;0.98;0.20;;;;;;;4.53;70.23;102377.69;5058659;28;20056;-80
2023/02/13 10:12:14;;;;;;;0.77;0.30;;;;;;;4.62;70.46;102390.06;5060213;28;20052;-77
2023/02/13 10:14:50;;;;;;;1.23;0.25;;;;;;;4.65;70.39;102385.84;5038264;28;20056;-76
2023/02/13 10:17:24;;;;;;;1.17;0.30;;;;;;;4.68;70.40;102375.59;5059358;28;20049;-77
2023/02/13 10:19:57;;;;;;;0.32;0.20;;;;;;;4.73;70.29;102381.78;5067784;28;20167;-77
2023/02/13 10:22:29;;;;;;;3.22;0.45;;;;;;;4.77;70.17;102385.34;5081115;28;20063;-75
2023/02/13 10:24:59;;;;;;;1.52;0.20;;;;;;;4.81;70.01;102388.91;5076901;28;20517;-75
2023/02/13 10:27:34;;;;;;;2.10;0.30;;;;;;;4.85;70.13;102393.34;5073258;28;20158;-75
2023/02/13 10:30:05;;;;;;;3.05;0.30;;;;;;;4.87;69.90;102392.56;5072031;28;20052;-76
2023/02/13 10:32:41;;;;;;;1.10;0.30;;;;;;;4.93;70.08;102394.47;5072748;28;20048;-76
2023/02/13 10:35:19;;;;;;;0.35;0.10;;;;;;;4.95;69.76;102390.19;5071859;28;20048;-75
2023/02/13 10:37:50;;;;;;;1.15;0.30;;;;;;;5.00;69.80;102398.13;5073784;28;20052;-76
2023/02/13 10:40:17;;;;;;;1.80;0.20;;;;;;;5.01;70.03;102403.38;5071301;28;20048;-75
2023/02/13 10:42:46;;;;;;;1.55;0.20;;;;;;;5.07;69.64;102410.44;5076502;28;20054;-75
2023/02/13 10:45:33;;;;;;;3.45;0.20;;;;;;;5.11;69.59;102413.16;5069484;28;20511;-76
2023/02/13 10:48:21;;;;;;;1.45;0.20;;;;;;;5.13;69.48;102416.69;5073037;28;20054;-75
2023/02/13 10:50:59;;;;;;;4.82;0.20;;;;;;;5.18;69.53;102414.22;5076318;28;20043;-75
2023/02/13 10:53:37;;;;;;;1.27;0.15;;;;;;;5.19;69.34;102416.84;5070143;28;20415;-76
2023/02/13 10:56:19;;;;;;;0.88;0.20;;;;;;;5.24;69.38;102413.53;5071803;28;20040;-76
2023/02/13 10:58:57;;;;;;;1.05;0.20;;;;;;;5.27;69.36;102413.63;5075303;28;20058;-76
2023/02/13 11:01:32;;;;;;;1.40;0.20;;;;;;;5.28;69.16;102412.78;5072784;28;20043;-75
2023/02/13 11:04:07;;;;;;;0.65;0.20;;;;;;;5.32;69.19;102423.28;5073409;28;20714;-74
2023/02/13 11:06:36;;;;;;;2.10;0.20;;;;;;;5.29;69.06;102409.34;5080457;28;20484;-75
2023/02/13 11:09:05;;;;;;;0.30;0.20;;;;;;;5.36;68.97;102413.91;5073861;28;20444;-75
2023/02/13 11:11:35;;;;;;;3.05;0.20;;;;;;;5.41;69.16;102410.59;5076828;28;20048;-75
2023/02/13 11:14:11;;;;;;;3.22;0.20;;;;;;;5.45;68.80;102414.16;5071252;28;20044;-75
2023/02/13 11:16:47;;;;;;;2.03;0.20;;;;;;;5.43;68.77;102395.06;5078637;28;20415;-75
2023/02/13 11:19:21;;;;;;;0.70;0.20;;;;;;;5.49;68.67;102405.63;5070499;28;20063;-75
2023/02/13 11:21:53;;;;;;;2.90;0.20;;;;;;;5.52;68.70;102410.91;5074381;28;21157;-75
2023/02/13 11:24:23;;;;;;;1.85;0.22;;;;;;;5.55;68.45;102423.06;5078907;28;20049;-75
2023/02/13 11:26:57;;;;;;;0.90;0.20;;;;;;;5.49;68.33;102413.38;5078143;28;20135;-76
2023/02/13 11:29:27;;;;;;;0.93;0.20;;;;;;;5.60;68.36;102421.47;5069181;28;20044;-75
2023/02/13 11:32:19;;;;;;;1.50;0.20;;;;;;;5.61;68.21;102426.72;5079164;28;20435;-75
2023/02/13 11:34:50;;;;;;;0.28;0.17;;;;;;;5.64;68.09;102426.81;5055160;28;20040;-75
2023/02/13 11:37:23;;;;;;;0.50;0.30;;;;;;;5.65;67.98;102427.69;5067316;28;20104;-75
2023/02/13 11:39:52;;;;;;;2.28;0.20;;;;;;;5.68;67.95;102421.72;5074901;28;20066;-75
2023/02/13 11:42:27;;;;;;;0.70;0.10;;;;;;;5.71;67.78;102421.78;5075175;28;20093;-75
2023/02/13 11:44:59;;;;;;;0.50;0.10;;;;;;;5.72;68.04;102421.84;5069109;28;20519;-75
2023/02/13 11:47:38;;;;;;;0.40;0.20;;;;;;;5.76;67.88;102425.41;5075516;28;20059;-79
2023/02/13 11:50:20;;;;;;;0.50;0.20;;;;;;;5.77;67.82;102427.13;5073747;28;20044;-77
2023/02/13 11:52:54;;;;;;;1.15;0.20;;;;;;;5.73;67.48;102420.13;5075549;28;20048;-77
2023/02/13 11:55:28;;;;;;;1.08;0.30;;;;;;;5.80;67.54;102433.28;5082366;28;20059;-77
2023/02/13 11:58:00;;;;;;;3.00;0.30;;;;;;;5.81;67.17;102439.38;5078274;28;20044;-77
2023/02/13 12:00:34;;;;;;;0.68;0.28;;;;;;;5.84;67.24;102447.25;5084789;28;20052;-76
2023/02/13 12:03:01;;;;;;;0.35;0.20;;;;;;;5.84;67.23;102436.88;5074928;28;20056;-76
2023/02/13 12:05:29;;;;;;;1.10;0.15;;;;;;;5.85;66.91;102446.38;5073817;28;20041;-77
2023/02/13 12:08:00;;;;;;;0.63;0.20;;;;;;;5.84;67.03;102445.50;5081435;28;20415;-79
2023/02/13 12:10:29;;;;;;;0.82;0.30;;;;;;;5.86;66.86;102448.13;5077865;28;20063;-76
2023/02/13 12:12:58;;;;;;;0.98;0.20;;;;;;;5.83;66.88;102450.66;5083585;28;20157;-76
2023/02/13 12:15:27;;;;;;;0.60;0.20;;;;;;;5.87;66.65;102460.28;5083442;28;20044;-76
2023/02/13 12:18:04;;;;;;;2.47;0.20;;;;;;;5.90;66.82;102450.00;5079472;28;20051;-76
2023/02/13 12:20:42;;;;;;;0.93;0.10;;;;;;;5.89;66.84;102450.84;5081277;28;20505;-77
2023/02/13 12:23:20;;;;;;;0.50;0.20;;;;;;;5.89;66.54;102447.34;5090934;28;20052;-79
2023/02/13 12:26:14;;;;;;;0.60;0.20;;;;;;;5.70;66.65;102420.03;5087818;28;20047;-81
2023/02/13 12:28:56;;;;;;;0.85;0.20;;;;;;;5.93;66.44;102462.19;5078234;28;20385;-78
2023/02/13 12:31:35;;;;;;;0.82;0.20;;;;;;;5.89;66.58;102457.72;5084869;28;20051;-79
2023/02/13 12:34:25;;;;;;;1.90;0.20;;;;;;;5.94;66.71;102464.81;5078791;28;20067;-77